createdAt,value
2022-08-26T00:01:19.106Z,50.58
2022-08-26T00:03:56.455Z,50.72
2022-08-26T00:06:23.472Z,50.84
2022-08-26T00:08:50.544Z,50.94
2022-08-26T00:11:26.863Z,51.00
2022-08-26T00:13:57.242Z,50.58
2022-08-26T00:16:25.929Z,50.69
2022-08-26T00:18:53.217Z,50.75
2022-08-26T00:21:20.187Z,50.66
2022-08-26T00:23:47.372Z,50.83
2022-08-26T00:26:14.233Z,51.11
2022-08-26T00:28:41.364Z,50.72
2022-08-26T00:31:11.103Z,51.05
2022-08-26T00:33:39.351Z,50.79
2022-08-26T00:36:07.234Z,50.88
2022-08-26T00:38:35.566Z,50.85
2022-08-26T00:41:05.160Z,50.96
2022-08-26T00:43:46.269Z,50.84
2022-08-26T00:46:29.538Z,51.09
2022-08-26T00:49:11.894Z,51.01
2022-08-26T00:51:49.099Z,51.11
2022-08-26T00:54:15.990Z,51.22
2022-08-26T00:57:04.969Z,51.09
2022-08-26T00:59:35.856Z,51.12
2022-08-26T01:02:06.227Z,51.18
2022-08-26T01:04:35.021Z,51.08
2022-08-26T01:07:03.683Z,51.47
2022-08-26T01:09:31.813Z,51.03
2022-08-26T01:11:59.509Z,50.85
2022-08-26T01:14:27.712Z,50.97
2022-08-26T01:16:54.797Z,51.25
2022-08-26T01:19:59.404Z,50.92
2022-08-26T01:22:30.369Z,51.12
2022-08-26T01:25:00.790Z,50.97
2022-08-26T01:27:32.972Z,51.13
2022-08-26T01:30:00.666Z,51.04
2022-08-26T01:32:28.774Z,51.02
2022-08-26T01:34:55.957Z,51.00
2022-08-26T01:37:26.781Z,50.79
2022-08-26T01:39:54.849Z,51.03
2022-08-26T01:42:23.161Z,50.96
2022-08-26T01:45:21.832Z,51.08
2022-08-26T01:47:50.053Z,50.93
2022-08-26T01:50:27.873Z,51.04
2022-08-26T01:52:58.205Z,51.42
2022-08-26T01:55:32.302Z,51.11
2022-08-26T01:58:04.743Z,51.21
2022-08-26T02:00:32.278Z,51.33
2022-08-26T02:03:17.382Z,51.15
2022-08-26T02:05:45.812Z,51.20
2022-08-26T02:08:15.960Z,51.29
2022-08-26T02:10:54.684Z,51.21
2022-08-26T02:13:22.109Z,51.31
2022-08-26T02:15:49.412Z,51.34
2022-08-26T02:18:17.061Z,51.45
2022-08-26T02:20:44.461Z,51.22
2022-08-26T02:23:11.533Z,51.47
2022-08-26T02:25:47.131Z,51.18
2022-08-26T02:28:14.400Z,51.19
2022-08-26T02:30:41.640Z,51.29
2022-08-26T02:33:08.924Z,51.27
2022-08-26T02:35:36.689Z,51.37
2022-08-26T02:38:09.942Z,51.09
2022-08-26T02:40:40.589Z,51.30
2022-08-26T02:43:08.810Z,51.29
2022-08-26T02:45:35.804Z,51.02
2022-08-26T02:48:22.920Z,51.53
2022-08-26T02:50:51.440Z,51.41
2022-08-26T02:53:23.194Z,50.95
2022-08-26T02:55:52.502Z,51.25
2022-08-26T02:58:19.423Z,51.39
2022-08-26T03:00:53.531Z,51.24
2022-08-26T03:03:23.720Z,51.28
2022-08-26T03:05:51.936Z,51.13
2022-08-26T03:08:18.910Z,51.50
2022-08-26T03:10:47.506Z,51.63
2022-08-26T03:13:16.457Z,51.23
2022-08-26T03:15:44.442Z,51.39
2022-08-26T03:18:15.033Z,51.66
2022-08-26T03:20:41.886Z,51.51
2022-08-26T03:23:09.158Z,51.17
2022-08-26T03:25:36.310Z,51.48
2022-08-26T03:28:03.613Z,51.26
2022-08-26T03:30:44.658Z,51.36
2022-08-26T03:33:12.820Z,51.58
2022-08-26T03:35:40.733Z,51.75
2022-08-26T03:38:08.437Z,51.26
2022-08-26T03:40:36.967Z,51.16
2022-08-26T03:43:04.867Z,51.23
2022-08-26T03:45:32.306Z,51.58
2022-08-26T03:47:59.831Z,51.86
2022-08-26T03:50:26.923Z,51.38
2022-08-26T03:52:54.239Z,51.51
2022-08-26T03:55:23.911Z,51.49
2022-08-26T03:57:51.608Z,51.71
2022-08-26T04:00:18.779Z,51.97
2022-08-26T04:02:48.767Z,51.47
2022-08-26T04:05:17.562Z,51.51
2022-08-26T04:07:44.775Z,51.57
2022-08-26T04:10:13.443Z,51.52
2022-08-26T04:12:42.418Z,51.73
2022-08-26T04:15:11.568Z,52.26
2022-08-26T04:17:38.774Z,52.38
2022-08-26T04:20:06.366Z,51.66
2022-08-26T04:22:33.850Z,51.76
2022-08-26T04:25:00.958Z,51.81
2022-08-26T04:27:27.874Z,51.75
2022-08-26T04:29:55.444Z,51.93
2022-08-26T04:32:22.743Z,51.62
2022-08-26T04:34:49.617Z,52.16
2022-08-26T04:37:16.554Z,51.99
2022-08-26T04:39:44.694Z,52.39
2022-08-26T04:42:13.446Z,52.08
2022-08-26T04:44:41.610Z,51.75
2022-08-26T04:47:08.724Z,51.52
2022-08-26T04:49:36.065Z,51.88
2022-08-26T04:52:05.049Z,52.60
2022-08-26T04:54:32.128Z,52.37
2022-08-26T04:56:59.436Z,52.19
2022-08-26T04:59:26.368Z,52.51
2022-08-26T05:01:59.480Z,51.83
2022-08-26T05:04:26.534Z,51.67
2022-08-26T05:06:56.763Z,51.68
2022-08-26T05:09:26.896Z,51.50
2022-08-26T05:11:54.180Z,51.78
2022-08-26T05:14:22.325Z,51.89
2022-08-26T05:16:49.616Z,52.05
2022-08-26T05:19:18.969Z,51.90
2022-08-26T05:21:47.156Z,51.86
2022-08-26T05:24:14.623Z,51.99
2022-08-26T05:26:41.784Z,51.58
2022-08-26T05:29:11.896Z,51.75
2022-08-26T05:31:39.135Z,51.81
2022-08-26T05:34:06.941Z,51.39
2022-08-26T05:36:34.957Z,51.51
2022-08-26T05:39:03.257Z,51.88
2022-08-26T05:41:34.497Z,51.35
2022-08-26T05:44:06.571Z,51.46
2022-08-26T05:46:33.655Z,51.61
2022-08-26T05:49:01.601Z,51.16
2022-08-26T05:51:30.387Z,51.43
2022-08-26T05:53:57.810Z,51.11
2022-08-26T05:56:26.256Z,51.33
2022-08-26T05:58:53.702Z,51.28
2022-08-26T06:01:22.398Z,51.13
2022-08-26T06:03:52.043Z,51.07
2022-08-26T06:06:28.267Z,51.42
2022-08-26T06:08:57.993Z,50.86
2022-08-26T06:11:25.690Z,51.16
2022-08-26T06:13:53.666Z,50.91
2022-08-26T06:16:23.394Z,51.10
2022-08-26T06:18:52.759Z,50.82
2022-08-26T06:21:31.603Z,50.97
2022-08-26T06:24:20.222Z,50.39
2022-08-26T06:26:50.438Z,50.65
2022-08-26T06:29:24.305Z,50.17
2022-08-26T06:31:52.880Z,50.48
2022-08-26T06:34:20.075Z,50.62
2022-08-26T06:36:47.445Z,50.61
2022-08-26T06:39:15.195Z,50.25
2022-08-26T06:41:46.378Z,50.34
2022-08-26T06:44:14.167Z,50.32
2022-08-26T06:46:41.569Z,49.94
2022-08-26T06:49:09.015Z,50.16
2022-08-26T06:51:37.669Z,50.18
2022-08-26T06:54:05.565Z,49.80
2022-08-26T06:56:35.798Z,50.28
2022-08-26T06:59:02.949Z,50.24
2022-08-26T07:01:33.699Z,50.07
2022-08-26T07:04:04.038Z,50.11
2022-08-26T07:06:40.785Z,50.09
2022-08-26T07:09:10.384Z,49.95
2022-08-26T07:11:37.948Z,50.14
2022-08-26T07:14:06.082Z,50.17
2022-08-26T07:16:33.500Z,49.98
2022-08-26T07:19:01.197Z,49.80
2022-08-26T07:21:30.653Z,49.49
2022-08-26T07:24:01.218Z,49.60
2022-08-26T07:26:29.735Z,49.60
2022-08-26T07:28:57.757Z,49.33
2022-08-26T07:31:27.805Z,49.17
2022-08-26T07:33:56.859Z,49.18
2022-08-26T07:36:24.417Z,49.22
2022-08-26T07:38:52.106Z,49.11
2022-08-26T07:41:21.673Z,49.10
2022-08-26T07:43:48.642Z,48.98
2022-08-26T07:46:20.804Z,48.71
2022-08-26T07:48:54.328Z,48.63
2022-08-26T07:51:23.606Z,48.47
2022-08-26T07:53:52.806Z,48.37
2022-08-26T07:56:21.082Z,48.46
2022-08-26T07:58:51.517Z,48.26
2022-08-26T08:01:23.810Z,48.39
2022-08-26T08:03:51.835Z,48.20
2022-08-26T08:06:22.263Z,48.06
2022-08-26T08:08:50.763Z,48.07
2022-08-26T08:11:21.156Z,48.01
2022-08-26T08:13:49.145Z,47.90
2022-08-26T08:16:16.081Z,47.96
2022-08-26T08:18:43.241Z,47.82
2022-08-26T08:21:21.785Z,47.77
2022-08-26T08:23:52.104Z,47.81
2022-08-26T08:26:19.112Z,47.68
2022-08-26T08:28:47.994Z,47.56
2022-08-26T08:31:52.028Z,47.94
2022-08-26T08:34:09.605Z,47.62
2022-08-26T08:36:36.736Z,47.76
2022-08-26T08:39:03.807Z,47.48
2022-08-26T08:41:45.751Z,47.48
2022-08-26T08:44:15.608Z,47.33
2022-08-26T08:46:43.043Z,47.42
2022-08-26T08:49:10.059Z,47.25
2022-08-26T08:51:39.931Z,47.32
2022-08-26T08:54:07.197Z,47.54
2022-08-26T08:56:47.733Z,47.08
2022-08-26T08:59:17.441Z,46.99
2022-08-26T09:01:59.939Z,47.37
2022-08-26T09:04:51.701Z,47.20
2022-08-26T09:07:27.025Z,47.22
2022-08-26T09:10:05.384Z,46.59
2022-08-26T09:12:33.609Z,47.11
2022-08-26T09:15:08.320Z,46.49
2022-08-26T09:17:46.119Z,46.91
2022-08-26T09:20:19.217Z,47.15
2022-08-26T09:22:46.447Z,46.89
2022-08-26T09:25:14.393Z,46.74
2022-08-26T09:27:51.931Z,46.82
2022-08-26T09:30:29.972Z,46.55
2022-08-26T09:32:59.923Z,45.92
2022-08-26T09:35:32.801Z,45.87
2022-08-26T09:38:00.352Z,44.76
2022-08-26T09:40:36.487Z,44.65
2022-08-26T09:43:08.111Z,45.05
2022-08-26T09:45:35.817Z,45.70
2022-08-26T09:48:03.467Z,45.26
2022-08-26T09:50:35.073Z,44.64
2022-08-26T09:53:17.297Z,44.87
2022-08-26T09:55:50.218Z,45.22
2022-08-26T09:58:32.697Z,44.50
2022-08-26T10:01:01.663Z,44.31
2022-08-26T10:03:32.780Z,43.83
2022-08-26T10:06:17.923Z,43.30
2022-08-26T10:08:50.642Z,43.11
2022-08-26T10:11:41.801Z,43.11
2022-08-26T10:14:37.142Z,43.09
2022-08-26T10:17:10.160Z,42.36
2022-08-26T10:19:57.816Z,42.17
2022-08-26T10:22:32.272Z,41.98
2022-08-26T10:25:01.029Z,42.66
2022-08-26T10:27:53.773Z,41.66
2022-08-26T10:30:23.223Z,41.54
2022-08-26T10:33:07.132Z,39.88
2022-08-26T10:35:36.760Z,39.14
2022-08-26T10:38:13.060Z,39.13
2022-08-26T10:40:55.202Z,39.37
2022-08-26T10:43:46.987Z,38.47
2022-08-26T10:46:19.052Z,39.11
2022-08-26T10:49:06.832Z,38.87
2022-08-26T10:51:42.359Z,38.17
2022-08-26T10:54:27.838Z,37.78
2022-08-26T10:57:22.949Z,37.51
2022-08-26T11:00:34.368Z,37.58
2022-08-26T11:03:38.903Z,37.29
2022-08-26T11:06:29.717Z,38.04
2022-08-26T11:08:58.567Z,38.04
2022-08-26T11:11:42.033Z,37.54
2022-08-26T11:14:29.843Z,37.03
2022-08-26T11:16:58.746Z,37.48
2022-08-26T11:20:00.729Z,37.05
2022-08-26T11:22:33.677Z,37.48
2022-08-26T11:25:02.924Z,37.92
2022-08-26T11:27:35.780Z,37.56
2022-08-26T11:30:18.543Z,38.87
2022-08-26T11:32:52.092Z,37.64
2022-08-26T11:35:19.528Z,37.67
2022-08-26T11:37:51.345Z,37.84
2022-08-26T11:40:22.455Z,38.34
2022-08-26T11:43:11.213Z,37.67
2022-08-26T11:45:39.332Z,37.68
2022-08-26T11:48:19.016Z,37.33
2022-08-26T11:50:54.537Z,37.64
2022-08-26T11:53:22.898Z,37.38
2022-08-26T11:55:50.727Z,38.27
2022-08-26T11:58:17.846Z,36.39
2022-08-26T12:01:09.751Z,36.24
2022-08-26T12:03:49.835Z,36.59
2022-08-26T12:06:17.697Z,36.16
2022-08-26T12:08:45.147Z,37.47
2022-08-26T12:11:20.147Z,35.95
2022-08-26T12:14:16.565Z,36.51
2022-08-26T12:16:43.585Z,35.20
2022-08-26T12:19:33.395Z,35.60
2022-08-26T12:22:09.775Z,35.06
2022-08-26T12:24:42.361Z,34.83
2022-08-26T12:27:23.563Z,34.28
2022-08-26T12:30:12.199Z,34.40
2022-08-26T12:32:57.684Z,33.98
2022-08-26T12:35:25.538Z,33.98
2022-08-26T12:37:53.758Z,33.89
2022-08-26T12:40:40.890Z,33.97
2022-08-26T12:43:08.346Z,34.27
2022-08-26T12:45:41.725Z,34.33
2022-08-26T12:48:25.259Z,34.52
2022-08-26T12:50:52.485Z,34.57
2022-08-26T12:53:24.343Z,35.02
2022-08-26T12:55:56.402Z,35.28
2022-08-26T12:58:26.757Z,34.96
2022-08-26T13:01:08.868Z,35.32
2022-08-26T13:03:45.529Z,35.17
2022-08-26T13:06:17.478Z,35.31
2022-08-26T13:08:46.647Z,35.48
2022-08-26T13:11:22.895Z,35.53
2022-08-26T13:13:54.430Z,35.18
2022-08-26T13:16:21.849Z,35.11
2022-08-26T13:18:53.167Z,35.84
2022-08-26T13:21:26.253Z,35.32
2022-08-26T13:23:53.698Z,36.29
2022-08-26T13:26:20.674Z,35.53
2022-08-26T13:28:53.226Z,36.02
2022-08-26T13:31:29.847Z,36.35
2022-08-26T13:33:57.422Z,36.65
2022-08-26T13:36:24.461Z,35.95
2022-08-26T13:38:51.932Z,36.07
2022-08-26T13:41:29.278Z,36.32
2022-08-26T13:43:58.170Z,36.36
2022-08-26T13:46:27.038Z,36.65
2022-08-26T13:48:54.650Z,37.42
2022-08-26T13:51:22.853Z,37.22
2022-08-26T13:53:50.419Z,37.22
2022-08-26T13:56:18.905Z,36.46
2022-08-26T13:58:46.482Z,36.21
2022-08-26T14:01:15.693Z,35.91
2022-08-26T14:03:42.915Z,36.47
2022-08-26T14:06:10.133Z,36.30
2022-08-26T14:08:37.910Z,36.45
2022-08-26T14:11:04.908Z,36.55
2022-08-26T14:13:31.867Z,36.79
2022-08-26T14:16:01.495Z,36.84
2022-08-26T14:18:30.101Z,37.75
2022-08-26T14:20:57.241Z,37.48
2022-08-26T14:23:24.791Z,37.37
2022-08-26T14:25:52.322Z,37.01
2022-08-26T14:28:19.278Z,37.16
2022-08-26T14:30:49.343Z,37.68
2022-08-26T14:33:16.758Z,37.84
2022-08-26T14:35:47.898Z,37.50
2022-08-26T14:38:16.711Z,37.33
2022-08-26T14:40:46.951Z,37.38
2022-08-26T14:43:15.315Z,37.79
2022-08-26T14:45:43.612Z,37.33
2022-08-26T14:48:10.894Z,38.19
2022-08-26T14:50:38.374Z,38.22
2022-08-26T14:53:24.179Z,37.42
2022-08-26T14:55:51.137Z,37.54
2022-08-26T14:58:18.244Z,37.69
2022-08-26T15:00:45.171Z,38.59
2022-08-26T15:03:12.168Z,36.76
2022-08-26T15:05:48.053Z,37.17
2022-08-26T15:08:15.967Z,37.19
2022-08-26T15:10:43.668Z,37.48
2022-08-26T15:13:10.559Z,38.18
2022-08-26T15:15:38.077Z,37.58
2022-08-26T15:18:06.208Z,38.00
2022-08-26T15:23:07.047Z,38.99
2022-08-26T15:25:34.845Z,38.85
2022-08-26T15:28:01.930Z,38.80
2022-08-26T15:30:28.944Z,38.76
2022-08-26T15:32:56.167Z,39.49
2022-08-26T15:35:23.087Z,39.17
2022-08-26T15:40:18.626Z,38.59
2022-08-26T15:42:54.353Z,38.19
2022-08-26T15:45:25.862Z,38.64
2022-08-26T15:48:01.196Z,38.70
2022-08-26T15:50:43.791Z,39.16
2022-08-26T15:53:10.682Z,39.88
2022-08-26T15:55:37.583Z,39.79
2022-08-26T15:58:04.842Z,39.10
2022-08-26T16:00:32.234Z,39.00
2022-08-26T16:02:59.106Z,39.41
2022-08-26T16:05:26.368Z,39.36
2022-08-26T16:07:53.402Z,40.44
2022-08-26T16:10:20.617Z,40.23
2022-08-26T16:12:47.805Z,40.08
2022-08-26T16:15:14.722Z,40.73
2022-08-26T16:17:41.629Z,40.66
2022-08-26T16:20:09.568Z,40.92
2022-08-26T16:22:36.591Z,41.29
2022-08-26T16:25:03.646Z,40.48
2022-08-26T16:27:32.484Z,40.93
2022-08-26T16:29:59.683Z,40.85
2022-08-26T16:32:31.080Z,41.23
2022-08-26T16:34:58.696Z,40.79
2022-08-26T16:37:25.622Z,40.86
2022-08-26T16:39:52.559Z,41.19
2022-08-26T16:42:19.735Z,41.60
2022-08-26T16:44:46.844Z,41.83
2022-08-26T16:47:14.740Z,41.67
2022-08-26T16:49:42.129Z,41.61
2022-08-26T16:52:09.272Z,41.28
2022-08-26T16:54:36.514Z,41.97
2022-08-26T16:57:03.509Z,41.36
2022-08-26T16:59:32.235Z,41.25
2022-08-26T17:01:59.340Z,40.89
2022-08-26T17:04:26.987Z,41.09
2022-08-26T17:06:54.364Z,41.50
2022-08-26T17:09:21.587Z,41.51
2022-08-26T17:11:48.530Z,41.41
2022-08-26T17:14:15.774Z,41.36
2022-08-26T17:16:44.976Z,41.21
2022-08-26T17:19:12.054Z,41.59
2022-08-26T17:21:39.906Z,41.46
2022-08-26T17:24:06.964Z,41.06
2022-08-26T17:26:34.166Z,41.69
2022-08-26T17:29:01.319Z,41.41
2022-08-26T17:31:28.234Z,41.50
2022-08-26T17:33:55.589Z,41.39
2022-08-26T17:36:27.466Z,41.23
2022-08-26T17:38:55.855Z,40.99
2022-08-26T17:41:22.745Z,40.85
2022-08-26T17:43:49.839Z,41.19
2022-08-26T17:46:16.739Z,41.69
2022-08-26T17:48:43.998Z,41.48
2022-08-26T17:51:14.443Z,41.53
2022-08-26T17:53:41.575Z,41.69
2022-08-26T17:56:09.955Z,42.08
2022-08-26T17:58:37.774Z,43.26
2022-08-26T18:01:06.052Z,42.34
2022-08-26T18:03:33.273Z,42.70
2022-08-26T18:06:00.481Z,42.88
2022-08-26T18:08:27.350Z,42.59
2022-08-26T18:10:54.250Z,42.79
2022-08-26T18:13:21.448Z,42.69
2022-08-26T18:15:48.370Z,43.15
2022-08-26T18:18:15.605Z,43.40
2022-08-26T18:20:43.661Z,43.21
2022-08-26T18:23:11.959Z,43.51
2022-08-26T18:25:42.619Z,43.79
2022-08-26T18:28:09.844Z,44.26
2022-08-26T18:30:37.005Z,43.87
2022-08-26T18:33:04.211Z,43.84
2022-08-26T18:35:31.344Z,44.18
2022-08-26T18:37:58.444Z,44.06
2022-08-26T18:40:37.555Z,44.77
2022-08-26T18:43:04.668Z,44.31
2022-08-26T18:45:31.527Z,44.30
2022-08-26T18:47:58.844Z,44.70
2022-08-26T18:50:25.706Z,44.83
2022-08-26T18:52:52.657Z,45.02
2022-08-26T18:55:19.793Z,44.82
2022-08-26T18:57:46.684Z,44.92
2022-08-26T19:00:13.946Z,44.97
2022-08-26T19:02:41.416Z,44.90
2022-08-26T19:05:10.603Z,45.25
2022-08-26T19:07:39.587Z,45.24
2022-08-26T19:10:07.278Z,45.65
2022-08-26T19:12:35.428Z,45.23
2022-08-26T19:15:02.770Z,45.33
2022-08-26T19:17:29.960Z,45.32
2022-08-26T19:19:56.852Z,45.76
2022-08-26T19:22:23.723Z,45.71
2022-08-26T19:24:51.155Z,45.63
2022-08-26T19:27:18.232Z,45.73
2022-08-26T19:29:45.232Z,45.78
2022-08-26T19:32:12.827Z,45.98
2022-08-26T19:34:39.760Z,45.76
2022-08-26T19:37:06.652Z,46.10
2022-08-26T19:39:33.794Z,46.10
2022-08-26T19:42:00.738Z,46.02
2022-08-26T19:44:46.138Z,46.06
2022-08-26T19:47:14.103Z,45.91
2022-08-26T19:49:41.026Z,45.76
2022-08-26T19:52:08.046Z,45.24
2022-08-26T19:54:36.169Z,45.50
2022-08-26T19:57:03.350Z,45.82
2022-08-26T19:59:30.371Z,45.43
2022-08-26T20:02:01.303Z,45.47
2022-08-26T20:04:30.283Z,45.55
2022-08-26T20:07:00.326Z,45.83
2022-08-26T20:09:31.815Z,46.15
2022-08-26T20:11:58.853Z,46.40
2022-08-26T20:14:26.589Z,46.06
2022-08-26T20:16:53.958Z,46.22
2022-08-26T20:19:39.540Z,46.19
2022-08-26T20:22:07.727Z,45.67
2022-08-26T20:24:35.165Z,45.89
2022-08-26T20:27:06.829Z,45.70
2022-08-26T20:29:34.985Z,45.66
2022-08-26T20:32:02.800Z,45.80
2022-08-26T20:34:30.228Z,46.32
2022-08-26T20:36:57.476Z,46.33
2022-08-26T20:39:24.351Z,46.29
2022-08-26T20:41:51.363Z,46.49
2022-08-26T20:44:18.507Z,46.40
2022-08-26T20:46:45.520Z,46.54
2022-08-26T20:49:13.362Z,46.57
2022-08-26T20:51:43.222Z,46.79
2022-08-26T20:54:11.699Z,46.46
2022-08-26T20:56:39.207Z,46.46
2022-08-26T20:59:07.092Z,46.50
2022-08-26T21:01:34.979Z,46.10
2022-08-26T21:04:03.903Z,45.85
2022-08-26T21:06:32.683Z,46.29
2022-08-26T21:09:01.507Z,46.54
2022-08-26T21:11:29.293Z,46.79
2022-08-26T21:14:07.148Z,46.74
2022-08-26T21:16:44.016Z,46.76
2022-08-26T21:19:12.472Z,46.56
2022-08-26T21:21:39.440Z,46.31
2022-08-26T21:24:06.732Z,46.35
2022-08-26T21:26:33.968Z,46.64
2022-08-26T21:29:01.299Z,46.70
2022-08-26T21:31:29.711Z,46.57
2022-08-26T21:33:56.999Z,46.25
2022-08-26T21:36:24.027Z,46.36
2022-08-26T21:38:50.939Z,45.91
2022-08-26T21:41:22.154Z,45.99
2022-08-26T21:43:50.074Z,46.30
2022-08-26T21:46:21.479Z,46.77
2022-08-26T21:48:55.031Z,46.89
2022-08-26T21:51:23.463Z,46.67
2022-08-26T21:53:52.861Z,46.82
2022-08-26T21:56:20.251Z,46.90
2022-08-26T21:58:47.163Z,47.00
2022-08-26T22:01:16.600Z,46.99
2022-08-26T22:03:47.426Z,47.04
2022-08-26T22:06:18.874Z,47.02
2022-08-26T22:08:46.105Z,47.07
2022-08-26T22:11:13.350Z,46.99
2022-08-26T22:13:40.811Z,47.16
2022-08-26T22:16:08.194Z,47.03
2022-08-26T22:18:35.704Z,47.01
2022-08-26T22:21:06.366Z,47.09
2022-08-26T22:23:33.718Z,46.87
2022-08-26T22:26:00.694Z,46.85
2022-08-26T22:28:28.257Z,47.10
2022-08-26T22:30:55.805Z,46.93
2022-08-26T22:33:23.105Z,47.39
2022-08-26T22:35:50.822Z,47.10
2022-08-26T22:38:18.218Z,47.22
2022-08-26T22:40:48.566Z,47.21
2022-08-26T22:43:15.605Z,47.26
2022-08-26T22:45:44.004Z,47.40
2022-08-26T22:48:11.299Z,47.30
2022-08-26T22:50:38.377Z,47.21
2022-08-26T22:53:05.564Z,47.38
2022-08-26T22:55:32.536Z,47.20
2022-08-26T22:57:59.440Z,47.32
2022-08-26T23:00:32.184Z,47.28
2022-08-26T23:03:00.136Z,47.41
2022-08-26T23:05:27.425Z,46.94
2022-08-26T23:07:56.290Z,47.07
2022-08-26T23:10:23.526Z,46.95
2022-08-26T23:12:50.774Z,47.08
2022-08-26T23:15:17.711Z,47.13
2022-08-26T23:17:45.382Z,46.99
2022-08-26T23:20:13.286Z,47.27
2022-08-26T23:22:40.278Z,47.53
2022-08-26T23:25:08.330Z,46.91
2022-08-26T23:27:38.174Z,47.25
2022-08-26T23:30:06.144Z,47.16
2022-08-26T23:32:33.046Z,47.39
2022-08-26T23:35:00.232Z,47.37
2022-08-26T23:37:35.067Z,47.12
2022-08-26T23:40:08.571Z,47.47
2022-08-26T23:42:36.326Z,47.28
2022-08-26T23:45:05.793Z,47.25
2022-08-26T23:47:33.086Z,47.40
2022-08-26T23:50:00.012Z,47.47
2022-08-26T23:52:45.465Z,47.14
2022-08-26T23:55:12.945Z,47.29
2022-08-26T23:57:39.893Z,47.16
